WetterOnline ( https://www.wetteronline.de )

Wetter aktuell Reschen am See

Aktuelles Wetter: Reschenpass (1461m)

6-stündlich | Neueste Meldungen
Ortszeit Temperatur Wetter
Do, 14.11. 13:00 0.2° C leicht bewölkt
Do, 14.11. 7:00 -7.2° C leicht bewölkt
Do, 14.11. 1:00 -5.2° C wolkenlos
Mi, 13.11. 19:00 -1.6° C wolkenlos
Mi, 13.11. 13:00 0.6° C leicht bewölkt
Mi, 13.11. 7:00 -2.8° C bedeckt
Mi, 13.11. 1:00 -2.6° C leichter Schneefall
Di, 12.11. 19:00 -1.0° C bedeckt
Ortszeit Temperatur Wetter
Do, 14.11. 16:55 -2° C leicht bewölkt
Do, 14.11. 16:00 -1.2° C leicht bewölkt
Do, 14.11. 15:55 -1° C leicht bewölkt
Do, 14.11. 15:00 -1.0° C leicht bewölkt
Do, 14.11. 14:55 -1° C leicht bewölkt
Do, 14.11. 14:00 -0.4° C leicht bewölkt
Do, 14.11. 13:55 0° C leicht bewölkt
Do, 14.11. 13:00 0.2° C leicht bewölkt
Ortszeit Relative Feuchte Sichtweite
Do, 14.11. 13:00 57% 30 km
Do, 14.11. 7:00 90% 14 km
Do, 14.11. 1:00 88% 10 km
Mi, 13.11. 19:00 77% 12 km
Mi, 13.11. 13:00 64% 12 km
Mi, 13.11. 7:00 89% 3.0 km
Mi, 13.11. 1:00 100% 1.0 km
Di, 12.11. 19:00 85% 4.0 km
Ortszeit Relative Feuchte Sichtweite
Do, 14.11. 16:55 80% >10 km
Do, 14.11. 16:00 76% 20 km
Do, 14.11. 15:55 74% >10 km
Do, 14.11. 15:00 71% 20 km
Do, 14.11. 14:55 69% >10 km
Do, 14.11. 14:00 65% 30 km
Do, 14.11. 13:55 64% >10 km
Do, 14.11. 13:00 57% 30 km
Ortszeit Niederschlagsmenge Niederschlagsart
Do, 14.11. 13:00 0.0 l/m2 in 6 Std. -
Do, 14.11. 7:00 0.0 l/m2 in 12 Std. -
Do, 14.11. 1:00 0.0 l/m2 in 6 Std. -
Mi, 13.11. 19:00 0.0 l/m2 in 12 Std. -
Mi, 13.11. 13:00 0.0 l/m2 in 6 Std. -
Mi, 13.11. 7:00 4 l/m2 in 12 Std. Schnee
Mi, 13.11. 1:00 1 l/m2 in 6 Std. Schnee
Di, 12.11. 19:00 0.0 l/m2 in 12 Std. -
Ortszeit Niederschlagsmenge Niederschlagsart
Do, 14.11. 16:55 keine Meldung -
Do, 14.11. 16:00 keine Meldung -
Do, 14.11. 15:55 keine Meldung -
Do, 14.11. 15:00 keine Meldung -
Do, 14.11. 14:55 keine Meldung -
Do, 14.11. 14:00 keine Meldung -
Do, 14.11. 13:55 keine Meldung -
Do, 14.11. 13:00 keine Meldung -
Ortszeit Stärke Spitze Richtung
km/h Bft. km/h Grad Sektor
Do, 14.11. 13:00 17 3 - 170° S
Do, 14.11. 7:00 15 3 - 180° S
Do, 14.11. 1:00 4 1 - 40° NO
Mi, 13.11. 19:00 4 1 - 10° N
Mi, 13.11. 13:00 15 3 - 350° N
Mi, 13.11. 7:00 13 3 - 10° N
Mi, 13.11. 1:00 15 3 - 20° N
Di, 12.11. 19:00 15 3 - 40° NO
Ortszeit Stärke Spitze Richtung
km/h Bft. km/h Grad Sektor
Do, 14.11. 16:55 15 3 - 150° SO
Do, 14.11. 16:00 17 3 - 160° S
Do, 14.11. 15:55 17 3 - 160° S
Do, 14.11. 15:00 19 3 - 160° S
Do, 14.11. 14:55 19 3 - 160° S
Do, 14.11. 14:00 17 3 - 160° S
Do, 14.11. 13:55 17 3 - 160° S
Do, 14.11. 13:00 17 3 - 170° S
Ortszeit Untergrenze Bedeckung Gattung
total tief tief mittel hoch
Do, 14.11. 13:00 5400 m 3/8 3/8 - - Ci
Do, 14.11. 7:00 1800 m 4/8 2/8 - Ac Ci
Do, 14.11. 1:00 - 0/8 0/8 - - -
Mi, 13.11. 19:00 - 0/8 0/8 - - -
Mi, 13.11. 13:00 360 m 5/8 3/8 Cu Ac -
Mi, 13.11. 7:00 600 m 8/8 8/8 St - -
Mi, 13.11. 1:00 240 m 8/8 8/8 St - -
Di, 12.11. 19:00 450 m 8/8 8/8 Sc - -
Ortszeit Bedeckungsgrad in Achtel und Wolkenuntergrenze
Do, 14.11. 16:55 3-4(750m)
Do, 14.11. 16:00 3(750m)
Do, 14.11. 15:55 3-4(750m)
Do, 14.11. 15:00 2(750m)
Do, 14.11. 14:55 1-2(750m)
Do, 14.11. 14:00 2(750m)
Do, 14.11. 13:55 1-2(750m)
Do, 14.11. 13:00 3(5400m)
Ortszeit Stationsdruck (hPa) Tendenz (hPa in 3 Std.)
Do, 14.11. 13:00 844 - 0,7
Do, 14.11. 7:00 844 + 0,5
Do, 14.11. 1:00 843 + 0,7
Mi, 13.11. 19:00 842 + 2,0
Mi, 13.11. 13:00 838 + 1,4
Mi, 13.11. 7:00 835 0,0
Mi, 13.11. 1:00 836 - 1,4
Di, 12.11. 19:00 837 - 1,9
Ortszeit Stationsdruck (hPa) Tendenz (hPa in 3 Std.)
Do, 14.11. 16:55 - keine Meldung
Do, 14.11. 16:00 843 - 1,4
Do, 14.11. 15:55 - keine Meldung
Do, 14.11. 15:00 843 - 1,8
Do, 14.11. 14:55 - keine Meldung
Do, 14.11. 14:00 844 - 1,1
Do, 14.11. 13:55 - keine Meldung
Do, 14.11. 13:00 844 - 0,7
Ortszeit Schneehöhe (cm)
Do, 14.11. 13:00 -
Do, 14.11. 7:00 6
Do, 14.11. 1:00 -
Mi, 13.11. 19:00 -
Mi, 13.11. 13:00 -
Mi, 13.11. 7:00 10
Mi, 13.11. 1:00 -
Di, 12.11. 19:00 5
Ortszeit Schneehöhe (cm)
Do, 14.11. 16:55 -
Do, 14.11. 16:00 -
Do, 14.11. 15:55 -
Do, 14.11. 15:00 -
Do, 14.11. 14:55 -
Do, 14.11. 14:00 -
Do, 14.11. 13:55 -
Do, 14.11. 13:00 -
Link zu dieser Seite / Seite empfehlen

Das Wetter in ...